Time;durP1;ratioP1;P1;durP2;ratioP2;P2;SDS_P1;SDS_P2;PMS_P1;PMS_P2;Temp;Humidity;BMP_temperature;BMP_pressure;BME280_temperature;BME280_humidity;BME280_pressure;Samples;Min_cycle;Max_cycle;Signal;HPM_P1;HPM_P2
2023/09/20 00:01:51;;;;;;;1.63;1.40;;;;;;;;;;7301745;19;141179;-77
2023/09/20 00:04:18;;;;;;;1.87;1.47;;;;;;;;;;7301241;19;142066;-77
2023/09/20 00:06:46;;;;;;;1.90;1.48;;;;;;;;;;7301625;19;140734;-77
2023/09/20 00:09:14;;;;;;;1.80;1.40;;;;;;;;;;7301120;19;140408;-77
2023/09/20 00:11:45;;;;;;;1.65;1.33;;;;;;;;;;7301376;19;140561;-78
2023/09/20 00:14:12;;;;;;;1.65;1.50;;;;;;;;;;7300919;19;142342;-77
2023/09/20 00:16:40;;;;;;;1.80;1.40;;;;;;;;;;7300946;19;141015;-77
2023/09/20 00:19:08;;;;;;;1.45;1.30;;;;;;;;;;7301673;19;140575;-77
2023/09/20 00:21:35;;;;;;;1.65;1.55;;;;;;;;;;7300892;19;141255;-77
2023/09/20 00:24:04;;;;;;;1.48;1.38;;;;;;;;;;7301301;19;141826;-77
2023/09/20 00:26:32;;;;;;;1.98;1.40;;;;;;;;;;7301319;19;140712;-78
2023/09/20 00:29:04;;;;;;;1.67;1.40;;;;;;;;;;7300766;19;140600;-77
2023/09/20 00:31:32;;;;;;;1.50;1.40;;;;;;;;;;7299870;19;141881;-78
2023/09/20 00:34:02;;;;;;;1.80;1.40;;;;;;;;;;7300573;19;141887;-77
2023/09/20 00:36:30;;;;;;;1.60;1.40;;;;;;;;;;7300901;19;140869;-78
2023/09/20 00:38:58;;;;;;;1.95;1.50;;;;;;;;;;7301101;19;140948;-77
2023/09/20 00:41:25;;;;;;;1.40;1.23;;;;;;;;;;7300701;19;141152;-77
2023/09/20 00:43:53;;;;;;;1.70;1.60;;;;;;;;;;7298926;19;142590;-77
2023/09/20 00:46:20;;;;;;;1.40;1.30;;;;;;;;;;7300104;19;140484;-76
2023/09/20 00:48:50;;;;;;;1.75;1.40;;;;;;;;;;7300343;19;140510;-76
2023/09/20 00:51:21;;;;;;;1.63;1.30;;;;;;;;;;7299745;19;142086;-76
2023/09/20 00:53:54;;;;;;;1.43;1.30;;;;;;;;;;7299775;19;141881;-76
2023/09/20 00:56:21;;;;;;;1.33;1.10;;;;;;;;;;7299139;19;140652;-76
2023/09/20 00:58:50;;;;;;;1.65;1.30;;;;;;;;;;7299925;19;140788;-76
2023/09/20 01:01:18;;;;;;;1.30;1.20;;;;;;;;;;7296877;19;141972;-76
2023/09/20 01:03:47;;;;;;;1.35;1.25;;;;;;;;;;7299783;19;140980;-76
2023/09/20 01:06:17;;;;;;;1.55;1.30;;;;;;;;;;7300045;19;140794;-77
2023/09/20 01:08:46;;;;;;;1.67;1.27;;;;;;;;;;7299792;19;140870;-76
2023/09/20 01:11:15;;;;;;;1.50;1.40;;;;;;;;;;7299265;19;141043;-77
2023/09/20 01:13:43;;;;;;;1.30;1.20;;;;;;;;;;7299484;19;142046;-77
2023/09/20 01:16:11;;;;;;;1.50;1.40;;;;;;;;;;7298969;19;140551;-77
2023/09/20 01:18:39;;;;;;;1.40;1.30;;;;;;;;;;7299129;19;140580;-77
2023/09/20 01:21:07;;;;;;;1.30;1.20;;;;;;;;;;7299241;19;140443;-78
2023/09/20 01:23:34;;;;;;;1.63;1.30;;;;;;;;;;7298865;19;142243;-77
2023/09/20 01:26:02;;;;;;;1.20;1.10;;;;;;;;;;7299091;19;140672;-77
2023/09/20 01:28:29;;;;;;;1.25;1.10;;;;;;;;;;7298843;19;140757;-77
2023/09/20 01:30:58;;;;;;;2.40;1.55;;;;;;;;;;7296864;19;141767;-78
2023/09/20 01:33:27;;;;;;;1.30;1.20;;;;;;;;;;7298717;19;142166;-77
2023/09/20 01:35:54;;;;;;;1.20;1.10;;;;;;;;;;7299098;19;140798;-78
2023/09/20 01:38:21;;;;;;;1.20;1.10;;;;;;;;;;7299325;19;140655;-78
2023/09/20 01:40:48;;;;;;;1.33;1.17;;;;;;;;;;7296704;19;141358;-78
2023/09/20 01:43:15;;;;;;;1.20;1.10;;;;;;;;;;7298156;19;141215;-77
2023/09/20 01:45:44;;;;;;;1.33;1.20;;;;;;;;;;7299137;19;140540;-77
2023/09/20 01:48:12;;;;;;;1.30;1.15;;;;;;;;;;7296613;19;141198;-77
2023/09/20 01:50:43;;;;;;;1.30;1.20;;;;;;;;;;7298549;19;141889;-76
2023/09/20 01:53:10;;;;;;;1.23;1.13;;;;;;;;;;7297659;19;142389;-76
2023/09/20 01:55:42;;;;;;;1.30;1.20;;;;;;;;;;7298600;19;140781;-79
2023/09/20 01:58:12;;;;;;;1.20;1.10;;;;;;;;;;7298838;19;140660;-79
2023/09/20 02:00:41;;;;;;;1.30;1.20;;;;;;;;;;7298397;19;140632;-78
2023/09/20 02:03:16;;;;;;;1.20;1.10;;;;;;;;;;7297761;19;142071;-78
2023/09/20 02:05:49;;;;;;;1.40;1.17;;;;;;;;;;7298192;19;140501;-78
2023/09/20 02:08:17;;;;;;;1.30;1.10;;;;;;;;;;7297984;19;140728;-77
2023/09/20 02:10:45;;;;;;;1.25;1.15;;;;;;;;;;7297951;19;141190;-77
2023/09/20 02:13:15;;;;;;;1.20;1.00;;;;;;;;;;7300139;19;142278;-77
2023/09/20 02:15:43;;;;;;;1.20;1.10;;;;;;;;;;7305162;19;140794;-78
2023/09/20 02:18:11;;;;;;;1.20;1.10;;;;;;;;;;7304572;19;140775;-78
2023/09/20 02:20:38;;;;;;;1.20;1.10;;;;;;;;;;7304920;19;140934;-77
2023/09/20 02:23:07;;;;;;;1.27;1.17;;;;;;;;;;7304136;19;142334;-77
2023/09/20 02:25:35;;;;;;;1.20;1.10;;;;;;;;;;7304769;19;140762;-78
2023/09/20 02:28:03;;;;;;;1.20;1.10;;;;;;;;;;7304619;19;140692;-78
2023/09/20 02:30:35;;;;;;;1.10;1.05;;;;;;;;;;7304662;19;141518;-78
2023/09/20 02:33:05;;;;;;;1.20;1.10;;;;;;;;;;7303281;19;141932;-78
2023/09/20 02:35:33;;;;;;;1.20;1.10;;;;;;;;;;7304317;19;140571;-78
2023/09/20 02:38:04;;;;;;;0.95;0.93;;;;;;;;;;7304742;19;140656;-78
2023/09/20 02:40:33;;;;;;;0.93;0.93;;;;;;;;;;7304286;19;141065;-77
2023/09/20 02:43:00;;;;;;;1.10;1.00;;;;;;;;;;7304132;19;142050;-78
2023/09/20 02:45:33;;;;;;;1.27;1.00;;;;;;;;;;7304045;19;140709;-78
2023/09/20 02:48:04;;;;;;;1.10;1.00;;;;;;;;;;7304083;19;140483;-78
2023/09/20 02:50:31;;;;;;;1.05;0.95;;;;;;;;;;7301748;19;141037;-78
2023/09/20 02:52:58;;;;;;;1.33;1.10;;;;;;;;;;7304574;19;141652;-78
2023/09/20 02:55:27;;;;;;;1.00;0.90;;;;;;;;;;7304321;19;140433;-77
2023/09/20 02:57:54;;;;;;;1.10;1.00;;;;;;;;;;7303627;19;140499;-78
2023/09/20 03:00:31;;;;;;;1.10;1.00;;;;;;;;;;7303585;19;142019;-77
2023/09/20 03:03:02;;;;;;;0.82;0.82;;;;;;;;;;7302642;19;142624;-77
2023/09/20 03:05:31;;;;;;;0.90;0.90;;;;;;;;;;7303963;19;140368;-77
2023/09/20 03:08:01;;;;;;;0.90;0.90;;;;;;;;;;7303562;19;140854;-77
2023/09/20 03:10:29;;;;;;;0.85;0.85;;;;;;;;;;7303351;19;140431;-77
2023/09/20 03:12:57;;;;;;;0.90;0.90;;;;;;;;;;7301250;19;141237;-78
2023/09/20 03:15:26;;;;;;;1.08;0.98;;;;;;;;;;7303386;19;140536;-77
2023/09/20 03:17:58;;;;;;;1.10;0.80;;;;;;;;;;7302487;19;140532;-77
2023/09/20 03:20:26;;;;;;;0.93;0.90;;;;;;;;;;7303033;19;141871;-78
2023/09/20 03:22:54;;;;;;;1.10;1.00;;;;;;;;;;7303150;19;140844;-77
2023/09/20 03:25:22;;;;;;;0.90;0.90;;;;;;;;;;7302261;19;140736;-77
2023/09/20 03:27:50;;;;;;;0.87;0.87;;;;;;;;;;7303139;19;140661;-78
2023/09/20 03:30:19;;;;;;;0.80;0.80;;;;;;;;;;7302946;19;140714;-78
2023/09/20 03:32:47;;;;;;;1.00;0.90;;;;;;;;;;7301041;19;142710;-78
2023/09/20 03:35:15;;;;;;;1.00;0.90;;;;;;;;;;7302848;19;140893;-77
2023/09/20 03:37:43;;;;;;;0.87;0.87;;;;;;;;;;7302164;19;140868;-78
2023/09/20 03:40:16;;;;;;;0.80;0.80;;;;;;;;;;7301835;19;141182;-78
2023/09/20 03:42:44;;;;;;;0.90;0.90;;;;;;;;;;7302898;19;140906;-77
2023/09/20 03:45:11;;;;;;;0.80;0.80;;;;;;;;;;7302523;19;141192;-77
2023/09/20 03:47:38;;;;;;;1.08;0.98;;;;;;;;;;7301826;19;140691;-78
2023/09/20 03:50:12;;;;;;;0.90;0.90;;;;;;;;;;7302117;19;141150;-77
2023/09/20 03:52:39;;;;;;;0.80;0.80;;;;;;;;;;7301767;19;141830;-77
2023/09/20 03:55:06;;;;;;;0.93;0.90;;;;;;;;;;7302036;19;140832;-77
2023/09/20 03:57:34;;;;;;;0.73;0.73;;;;;;;;;;7302142;19;140487;-77
2023/09/20 04:00:06;;;;;;;1.17;1.00;;;;;;;;;;7301147;19;141076;-78
2023/09/20 04:02:36;;;;;;;0.80;0.80;;;;;;;;;;7299736;19;141912;-78
2023/09/20 04:05:15;;;;;;;0.90;0.90;;;;;;;;;;7299857;19;141049;-78
2023/09/20 04:07:56;;;;;;;1.00;0.90;;;;;;;;;;7300315;19;141314;-78
2023/09/20 04:10:23;;;;;;;0.80;0.80;;;;;;;;;;7301224;19;141037;-80
2023/09/20 04:12:50;;;;;;;0.90;0.80;;;;;;;;;;7301433;19;140864;-81
2023/09/20 04:15:17;;;;;;;0.90;0.90;;;;;;;;;;7301206;19;140758;-79
2023/09/20 04:17:48;;;;;;;0.80;0.80;;;;;;;;;;7303500;19;140678;-77
2023/09/20 04:20:18;;;;;;;0.77;0.77;;;;;;;;;;7300882;19;141970;-79
2023/09/20 04:22:46;;;;;;;0.77;0.77;;;;;;;;;;7301192;19;141485;-79
2023/09/20 04:25:13;;;;;;;1.27;0.90;;;;;;;;;;7301127;19;140763;-79
2023/09/20 04:27:41;;;;;;;0.82;0.82;;;;;;;;;;7301369;19;140990;-79
2023/09/20 04:30:08;;;;;;;1.40;0.90;;;;;;;;;;7300597;19;141001;-79
2023/09/20 04:32:35;;;;;;;1.30;0.95;;;;;;;;;;7297923;19;142219;-79
2023/09/20 04:35:04;;;;;;;0.80;0.80;;;;;;;;;;7300318;19;140883;-80
2023/09/20 04:37:32;;;;;;;1.80;1.10;;;;;;;;;;7297734;19;141910;-80
2023/09/20 04:39:59;;;;;;;0.70;0.70;;;;;;;;;;7299972;19;141232;-80
2023/09/20 04:42:33;;;;;;;0.90;0.90;;;;;;;;;;7299600;19;141981;-79
2023/09/20 04:45:00;;;;;;;1.00;0.90;;;;;;;;;;7301052;19;140702;-80
2023/09/20 04:47:28;;;;;;;1.20;1.10;;;;;;;;;;7298628;19;140791;-79
2023/09/20 04:49:55;;;;;;;0.90;0.90;;;;;;;;;;7299660;19;141425;-79
2023/09/20 04:52:25;;;;;;;0.80;0.80;;;;;;;;;;7299406;19;140748;-78
2023/09/20 04:54:53;;;;;;;0.85;0.80;;;;;;;;;;7299865;19;140855;-80
2023/09/20 04:57:21;;;;;;;0.80;0.80;;;;;;;;;;7299709;19;140882;-80
2023/09/20 04:59:48;;;;;;;1.40;0.80;;;;;;;;;;7299754;19;141850;-80
2023/09/20 05:02:15;;;;;;;0.80;0.80;;;;;;;;;;7298568;19;141961;-80
2023/09/20 05:04:42;;;;;;;0.90;0.90;;;;;;;;;;7299946;19;140582;-81
2023/09/20 05:07:09;;;;;;;1.10;1.00;;;;;;;;;;7298446;19;140790;-80
2023/09/20 05:09:36;;;;;;;3.90;1.50;;;;;;;;;;7298042;19;141064;-82
2023/09/20 05:12:04;;;;;;;9.43;2.65;;;;;;;;;;7297217;19;142023;-80
2023/09/20 05:14:31;;;;;;;13.70;2.65;;;;;;;;;;7296769;19;140756;-83
2023/09/20 05:16:58;;;;;;;9.20;2.08;;;;;;;;;;7299605;19;140778;-81
2023/09/20 05:19:25;;;;;;;11.55;2.30;;;;;;;;;;7297022;19;141903;-82
2023/09/20 05:21:54;;;;;;;9.13;2.13;;;;;;;;;;7297419;19;142830;-80
2023/09/20 05:24:21;;;;;;;11.82;2.70;;;;;;;;;;7297116;19;140859;-80
2023/09/20 05:26:51;;;;;;;8.43;2.47;;;;;;;;;;7297825;19;140501;-80
2023/09/20 05:29:18;;;;;;;12.45;2.58;;;;;;;;;;7298864;19;141484;-81
2023/09/20 05:31:46;;;;;;;11.45;2.78;;;;;;;;;;7298426;19;141467;-82
2023/09/20 05:34:13;;;;;;;9.18;2.83;;;;;;;;;;7298790;19;140468;-80
2023/09/20 05:36:43;;;;;;;10.07;2.70;;;;;;;;;;7298985;19;140736;-79
2023/09/20 05:39:12;;;;;;;9.68;2.33;;;;;;;;;;7300829;19;141634;-78
2023/09/20 05:41:40;;;;;;;6.30;2.20;;;;;;;;;;7299522;19;141214;-77
2023/09/20 05:44:10;;;;;;;7.55;2.45;;;;;;;;;;7299697;19;140738;-77
2023/09/20 05:46:37;;;;;;;7.07;2.38;;;;;;;;;;7299923;19;140747;-78
2023/09/20 05:49:04;;;;;;;9.10;2.42;;;;;;;;;;7304799;19;141696;-78
2023/09/20 05:51:32;;;;;;;7.15;2.40;;;;;;;;;;7307886;19;142643;-79
2023/09/20 05:53:58;;;;;;;4.13;2.03;;;;;;;;;;7307936;19;140596;-79
2023/09/20 05:56:25;;;;;;;5.13;2.33;;;;;;;;;;7307830;19;140606;-81
2023/09/20 05:58:53;;;;;;;4.68;2.13;;;;;;;;;;7307039;19;141673;-80
2023/09/20 06:01:23;;;;;;;5.10;1.75;;;;;;;;;;7307338;19;142617;-79
2023/09/20 06:03:56;;;;;;;6.03;2.30;;;;;;;;;;7306847;19;140481;-79
2023/09/20 06:06:23;;;;;;;3.90;2.00;;;;;;;;;;7307183;19;140707;-79
2023/09/20 06:08:50;;;;;;;5.15;2.30;;;;;;;;;;7307561;19;141627;-79
2023/09/20 06:11:18;;;;;;;3.40;1.95;;;;;;;;;;7305530;19;141993;-80
2023/09/20 06:13:46;;;;;;;5.55;2.25;;;;;;;;;;7307193;19;140319;-79
2023/09/20 06:16:13;;;;;;;2.20;1.60;;;;;;;;;;7306522;19;140566;-79
2023/09/20 06:18:42;;;;;;;6.78;1.75;;;;;;;;;;7306303;19;140958;-80
2023/09/20 06:21:31;;;;;;;5.55;1.65;;;;;;;;;;7305818;19;143914;-80
2023/09/20 06:23:58;;;;;;;2.40;1.60;;;;;;;;;;7305380;19;140575;-79
2023/09/20 06:26:26;;;;;;;4.35;1.83;;;;;;;;;;7306564;19;140486;-80
2023/09/20 06:28:53;;;;;;;4.40;2.20;;;;;;;;;;7306394;19;140815;-79
2023/09/20 06:31:20;;;;;;;4.72;1.70;;;;;;;;;;7305799;19;142093;-79
2023/09/20 06:33:47;;;;;;;2.95;1.65;;;;;;;;;;7305305;19;140397;-78
2023/09/20 06:36:15;;;;;;;2.70;1.55;;;;;;;;;;7306285;19;140803;-78
2023/09/20 06:38:42;;;;;;;3.17;1.60;;;;;;;;;;7305967;19;141266;-78
2023/09/20 06:41:10;;;;;;;2.90;1.50;;;;;;;;;;7305330;19;142693;-79
2023/09/20 06:43:37;;;;;;;4.63;1.92;;;;;;;;;;7306451;19;140543;-77
2023/09/20 06:46:09;;;;;;;3.28;2.00;;;;;;;;;;7304551;19;140627;-78
2023/09/20 06:48:43;;;;;;;3.85;1.65;;;;;;;;;;7302105;19;141516;-78
2023/09/20 06:51:11;;;;;;;2.13;1.48;;;;;;;;;;7305186;19;140969;-78
2023/09/20 06:53:38;;;;;;;2.85;1.60;;;;;;;;;;7305727;19;140594;-79
2023/09/20 06:56:05;;;;;;;1.77;1.60;;;;;;;;;;7304371;19;140759;-79
2023/09/20 06:58:34;;;;;;;4.13;1.60;;;;;;;;;;7302777;19;141797;-79
2023/09/20 07:01:03;;;;;;;3.40;1.65;;;;;;;;;;7305281;19;141894;-78
2023/09/20 07:03:32;;;;;;;3.53;2.10;;;;;;;;;;7304427;19;140529;-78
2023/09/20 07:06:02;;;;;;;3.85;1.80;;;;;;;;;;7305922;19;140410;-79
2023/09/20 07:08:31;;;;;;;2.88;1.75;;;;;;;;;;7302117;19;144891;-79
2023/09/20 07:10:58;;;;;;;3.42;1.73;;;;;;;;;;7304055;19;142529;-79
2023/09/20 07:13:26;;;;;;;2.38;1.48;;;;;;;;;;7304761;19;140844;-79
2023/09/20 07:15:56;;;;;;;2.67;1.60;;;;;;;;;;7303523;19;140462;-77
2023/09/20 07:18:23;;;;;;;2.85;1.60;;;;;;;;;;7304049;19;141768;-78
2023/09/20 07:20:54;;;;;;;3.13;1.60;;;;;;;;;;7304575;19;141842;-78
2023/09/20 07:23:22;;;;;;;2.20;1.50;;;;;;;;;;7304607;19;140694;-78
2023/09/20 07:25:49;;;;;;;2.88;1.40;;;;;;;;;;7304409;19;140472;-77
2023/09/20 07:28:16;;;;;;;1.30;1.20;;;;;;;;;;7304098;19;141804;-78
2023/09/20 07:30:46;;;;;;;2.28;1.40;;;;;;;;;;7303768;19;143049;-77
2023/09/20 07:33:19;;;;;;;1.90;1.40;;;;;;;;;;7302485;19;140536;-78
2023/09/20 07:35:47;;;;;;;2.95;1.33;;;;;;;;;;7303794;19;140734;-78
2023/09/20 07:38:36;;;;;;;2.45;1.50;;;;;;;;;;7302420;19;141065;-75
2023/09/20 07:41:13;;;;;;;2.22;1.52;;;;;;;;;;7303506;19;141743;-74
2023/09/20 07:43:44;;;;;;;1.52;1.30;;;;;;;;;;7303506;19;141257;-77
2023/09/20 07:46:13;;;;;;;2.03;1.50;;;;;;;;;;7302187;19;140896;-76
2023/09/20 07:48:50;;;;;;;2.20;1.60;;;;;;;;;;7299614;19;141101;-77
2023/09/20 07:51:29;;;;;;;1.70;1.55;;;;;;;;;;7301349;19;142639;-76
2023/09/20 07:53:58;;;;;;;1.77;1.50;;;;;;;;;;7300773;19;140608;-72
2023/09/20 07:56:25;;;;;;;2.30;1.60;;;;;;;;;;7301427;19;141673;-80
2023/09/20 07:58:55;;;;;;;2.30;1.52;;;;;;;;;;7301474;19;142615;-73
2023/09/20 08:01:24;;;;;;;2.38;1.50;;;;;;;;;;7301225;19;142691;-73
2023/09/20 08:03:52;;;;;;;2.22;1.40;;;;;;;;;;7301111;19;140615;-74
2023/09/20 08:06:25;;;;;;;1.70;1.40;;;;;;;;;;7299764;19;140823;-74
2023/09/20 08:08:52;;;;;;;1.65;1.52;;;;;;;;;;7300794;19;142069;-74
2023/09/20 08:11:19;;;;;;;2.10;1.40;;;;;;;;;;7299138;19;141527;-74
2023/09/20 08:13:52;;;;;;;1.85;1.40;;;;;;;;;;7299484;19;140382;-73
2023/09/20 08:16:20;;;;;;;2.08;1.50;;;;;;;;;;7299840;19;140787;-73
2023/09/20 08:21:34;;;;;;;1.67;1.30;;;;;;;;;;7297039;19;141462;-74
2023/09/20 09:00:24;;;;;;;1.50;1.23;;;;;;;;;;7300133;19;140707;-72
2023/09/20 09:02:53;;;;;;;1.53;1.30;;;;;;;;;;7299405;19;142878;-73
2023/09/20 09:05:22;;;;;;;1.80;1.20;;;;;;;;;;7298918;19;141878;-73
2023/09/20 09:07:53;;;;;;;1.43;1.30;;;;;;;;;;7298966;19;141112;-73
2023/09/20 09:10:20;;;;;;;1.38;1.20;;;;;;;;;;7298900;19;140628;-74
2023/09/20 09:12:48;;;;;;;1.45;1.35;;;;;;;;;;7297231;19;140749;-73
2023/09/20 09:15:16;;;;;;;1.85;1.40;;;;;;;;;;7297889;19;142133;-74
2023/09/20 09:17:44;;;;;;;1.40;1.23;;;;;;;;;;7299724;19;140774;-73
2023/09/20 09:20:13;;;;;;;1.67;1.20;;;;;;;;;;7298664;19;140657;-74
2023/09/20 09:22:41;;;;;;;1.37;1.20;;;;;;;;;;7298392;19;141141;-74
2023/09/20 09:25:12;;;;;;;2.08;1.40;;;;;;;;;;7296074;19;142233;-75
2023/09/20 09:27:40;;;;;;;1.63;1.30;;;;;;;;;;7298798;19;141810;-79
2023/09/20 09:30:12;;;;;;;2.10;1.33;;;;;;;;;;7296177;19;143638;-74
2023/09/20 09:32:52;;;;;;;2.05;1.27;;;;;;;;;;7297434;19;141013;-82
2023/09/20 09:35:19;;;;;;;1.42;1.20;;;;;;;;;;7298537;19;140833;-77
2023/09/20 09:38:06;;;;;;;1.40;1.30;;;;;;;;;;7297621;19;140735;-74
2023/09/20 09:40:49;;;;;;;1.48;1.10;;;;;;;;;;7298351;19;141313;-74
2023/09/20 09:43:19;;;;;;;1.30;1.20;;;;;;;;;;7296651;19;141454;-72
2023/09/20 09:45:48;;;;;;;1.40;1.30;;;;;;;;;;7298424;19;142188;-73
2023/09/20 09:48:16;;;;;;;1.50;1.40;;;;;;;;;;7298392;19;140694;-75
2023/09/20 09:50:46;;;;;;;1.20;1.10;;;;;;;;;;7297888;19;140614;-74
2023/09/20 09:53:20;;;;;;;1.40;1.30;;;;;;;;;;7297693;19;140998;-73
2023/09/20 09:55:50;;;;;;;1.27;1.17;;;;;;;;;;7297569;19;142069;-74
2023/09/20 09:58:17;;;;;;;1.95;1.40;;;;;;;;;;7296175;19;140885;-74
2023/09/20 10:00:48;;;;;;;1.92;1.30;;;;;;;;;;7297205;19;140746;-74
2023/09/20 10:03:18;;;;;;;2.10;1.33;;;;;;;;;;7297634;19;142088;-74
2023/09/20 10:05:46;;;;;;;2.30;1.20;;;;;;;;;;7296810;19;140795;-74
2023/09/20 10:08:14;;;;;;;1.58;1.23;;;;;;;;;;7298029;19;140822;-75
2023/09/20 10:10:44;;;;;;;1.43;1.30;;;;;;;;;;7297888;19;140479;-73
2023/09/20 10:13:14;;;;;;;1.90;1.10;;;;;;;;;;7296804;19;141494;-74
2023/09/20 10:15:44;;;;;;;1.80;1.10;;;;;;;;;;7297104;19;141972;-74
2023/09/20 10:18:11;;;;;;;1.40;1.20;;;;;;;;;;7298150;19;141205;-75
2023/09/20 10:21:14;;;;;;;1.60;1.30;;;;;;;;;;7297315;19;140611;-82
2023/09/20 10:23:42;;;;;;;2.80;1.58;;;;;;;;;;7296154;19;140849;-76
2023/09/20 10:26:13;;;;;;;4.50;1.60;;;;;;;;;;7295910;19;142639;-78
2023/09/20 10:28:44;;;;;;;3.67;1.47;;;;;;;;;;7296273;19;140794;-79
2023/09/20 10:31:18;;;;;;;3.50;1.47;;;;;;;;;;7294338;19;141273;-80
2023/09/20 10:33:45;;;;;;;3.33;1.50;;;;;;;;;;7297044;19;141912;-77
2023/09/20 10:36:18;;;;;;;3.72;1.50;;;;;;;;;;7302422;19;140932;-77
2023/09/20 10:38:46;;;;;;;1.80;1.40;;;;;;;;;;7304172;19;140957;-78
2023/09/20 10:41:17;;;;;;;2.63;1.40;;;;;;;;;;7302409;19;141101;-78
2023/09/20 10:43:46;;;;;;;2.83;1.50;;;;;;;;;;7302717;19;140696;-77
2023/09/20 10:46:17;;;;;;;1.93;1.40;;;;;;;;;;7301640;19;142424;-79
2023/09/20 10:48:49;;;;;;;1.67;1.40;;;;;;;;;;7302525;19;140886;-79
2023/09/20 10:51:35;;;;;;;2.90;1.50;;;;;;;;;;7301934;19;141022;-79
2023/09/20 10:54:17;;;;;;;2.60;1.50;;;;;;;;;;7303385;19;141682;-81
2023/09/20 10:59:38;;;;;;;4.18;1.60;;;;;;;;;;7303953;19;140659;-78
2023/09/20 11:02:08;;;;;;;3.20;1.50;;;;;;;;;;7303082;19;140541;-78
2023/09/20 11:04:36;;;;;;;2.65;1.70;;;;;;;;;;7303168;19;141897;-79
2023/09/20 11:07:04;;;;;;;2.37;1.70;;;;;;;;;;7302224;19;142291;-80
2023/09/20 11:09:33;;;;;;;3.58;1.70;;;;;;;;;;7303098;19;140562;-79
2023/09/20 11:12:20;;;;;;;2.80;1.70;;;;;;;;;;7300970;19;140597;-78
2023/09/20 11:14:49;;;;;;;2.00;1.67;;;;;;;;;;7302728;19;141473;-78
2023/09/20 11:17:17;;;;;;;2.15;1.73;;;;;;;;;;7299062;19;141847;-78
2023/09/20 11:19:47;;;;;;;1.70;1.52;;;;;;;;;;7302362;19;140515;-77
2023/09/20 11:22:14;;;;;;;2.43;1.60;;;;;;;;;;7302520;19;140388;-78
2023/09/20 11:24:44;;;;;;;1.70;1.57;;;;;;;;;;7301036;19;142089;-79
2023/09/20 11:27:24;;;;;;;2.63;1.77;;;;;;;;;;7300303;19;143579;-78
2023/09/20 11:32:34;;;;;;;2.00;1.57;;;;;;;;;;7302604;19;140791;-78
2023/09/20 11:35:01;;;;;;;2.35;1.65;;;;;;;;;;7300868;19;140621;-79
2023/09/20 11:37:30;;;;;;;2.47;1.52;;;;;;;;;;7301139;19;142072;-79
2023/09/20 11:39:57;;;;;;;2.15;1.60;;;;;;;;;;7301049;19;140504;-79
2023/09/20 11:42:39;;;;;;;3.05;1.60;;;;;;;;;;7300735;19;140474;-80
2023/09/20 11:47:50;;;;;;;1.63;1.50;;;;;;;;;;7304284;19;140757;-79
2023/09/20 11:50:18;;;;;;;1.87;1.50;;;;;;;;;;7301437;19;140718;-77
2023/09/20 11:52:46;;;;;;;2.28;1.75;;;;;;;;;;7301667;19;141242;-77
2023/09/20 11:55:14;;;;;;;1.98;1.60;;;;;;;;;;7296076;19;142221;-77
2023/09/20 11:57:42;;;;;;;2.30;1.70;;;;;;;;;;7298877;19;141410;-78
2023/09/20 12:00:16;;;;;;;2.17;1.70;;;;;;;;;;7300778;19;140800;-78
2023/09/20 12:18:07;;;;;;;2.08;1.73;;;;;;;;;;7268197;19;143092;-80
2023/09/20 12:24:03;;;;;;;2.25;1.80;;;;;;;;;;7278971;19;142340;-80
2023/09/20 12:29:33;;;;;;;3.03;1.80;;;;;;;;;;7291330;19;142011;-77
2023/09/20 12:32:04;;;;;;;2.23;1.90;;;;;;;;;;7299361;19;140965;-78
2023/09/20 12:34:31;;;;;;;2.33;1.70;;;;;;;;;;7297289;19;141062;-79
2023/09/20 12:36:59;;;;;;;2.25;1.77;;;;;;;;;;7298993;19;140694;-79
2023/09/20 12:39:26;;;;;;;2.73;1.80;;;;;;;;;;7296929;19;141336;-79
2023/09/20 12:42:09;;;;;;;2.65;1.90;;;;;;;;;;7298126;19;140900;-79
2023/09/20 12:44:47;;;;;;;3.00;1.90;;;;;;;;;;7300285;19;140702;-78
2023/09/20 12:47:14;;;;;;;3.03;1.90;;;;;;;;;;7299212;19;141026;-79
2023/09/20 12:49:42;;;;;;;2.38;1.98;;;;;;;;;;7299167;19;141077;-79
2023/09/20 12:52:09;;;;;;;2.07;1.80;;;;;;;;;;7298271;19;142574;-78
2023/09/20 12:54:36;;;;;;;2.30;1.85;;;;;;;;;;7296725;19;140993;-79
2023/09/20 12:57:04;;;;;;;3.35;2.03;;;;;;;;;;7296883;19;140780;-79
2023/09/20 13:02:53;;;;;;;2.40;2.00;;;;;;;;;;7297466;19;143047;-79
2023/09/20 13:05:22;;;;;;;3.15;2.03;;;;;;;;;;7298301;19;140940;-78
2023/09/20 13:07:49;;;;;;;2.23;1.80;;;;;;;;;;7298792;19;140768;-78
2023/09/20 13:10:17;;;;;;;2.92;1.95;;;;;;;;;;7296049;19;141629;-79
2023/09/20 13:12:44;;;;;;;2.58;2.00;;;;;;;;;;7297435;19;142872;-77
2023/09/20 13:15:34;;;;;;;2.50;1.90;;;;;;;;;;7296797;19;141065;-79
2023/09/20 13:18:06;;;;;;;2.15;1.83;;;;;;;;;;7298261;19;140616;-79
2023/09/20 13:20:35;;;;;;;2.60;2.00;;;;;;;;;;7296514;19;140757;-78
2023/09/20 13:23:03;;;;;;;2.65;1.85;;;;;;;;;;7297521;19;141690;-78
2023/09/20 13:25:32;;;;;;;2.47;1.90;;;;;;;;;;7297767;19;140614;-78
2023/09/20 13:28:02;;;;;;;3.33;2.00;;;;;;;;;;7297176;19;140723;-78
2023/09/20 13:30:33;;;;;;;3.25;2.05;;;;;;;;;;7296236;19;141005;-78
2023/09/20 13:33:00;;;;;;;2.67;2.10;;;;;;;;;;7297435;19;143977;-78
2023/09/20 13:35:28;;;;;;;2.78;2.00;;;;;;;;;;7296187;19;140691;-79
2023/09/20 13:37:55;;;;;;;2.88;1.90;;;;;;;;;;7299094;19;140594;-78
2023/09/20 13:40:23;;;;;;;2.80;1.87;;;;;;;;;;7298834;19;141706;-78
2023/09/20 13:42:51;;;;;;;2.30;1.90;;;;;;;;;;7297135;19;143776;-79
2023/09/20 13:45:19;;;;;;;2.05;1.90;;;;;;;;;;7298043;19;140683;-78
2023/09/20 13:47:49;;;;;;;2.63;1.90;;;;;;;;;;7298216;19;143122;-77
2023/09/20 13:50:17;;;;;;;3.13;2.10;;;;;;;;;;7296705;19;141379;-78
2023/09/20 13:52:45;;;;;;;3.00;2.10;;;;;;;;;;7295103;19;142523;-78
2023/09/20 13:55:17;;;;;;;3.03;2.20;;;;;;;;;;7295942;19;140851;-78
2023/09/20 13:57:58;;;;;;;2.95;1.90;;;;;;;;;;7298191;19;142203;-78
2023/09/20 14:00:28;;;;;;;2.83;2.10;;;;;;;;;;7296656;19;140938;-79
2023/09/20 14:03:00;;;;;;;2.92;2.15;;;;;;;;;;7297941;19;142552;-79
2023/09/20 14:05:27;;;;;;;2.93;2.00;;;;;;;;;;7294779;19;140976;-79
2023/09/20 14:08:04;;;;;;;2.95;2.10;;;;;;;;;;7295456;19;140668;-78
2023/09/20 14:10:33;;;;;;;2.70;1.98;;;;;;;;;;7301994;19;142515;-79
2023/09/20 14:13:07;;;;;;;3.08;1.90;;;;;;;;;;7303611;19;140860;-78
2023/09/20 14:15:54;;;;;;;2.80;2.05;;;;;;;;;;7303111;19;141346;-78
2023/09/20 14:18:35;;;;;;;2.65;1.90;;;;;;;;;;7304300;19;142389;-79
2023/09/20 14:21:05;;;;;;;2.67;2.08;;;;;;;;;;7301870;19;142097;-79
2023/09/20 14:23:33;;;;;;;2.78;1.98;;;;;;;;;;7303088;19;142980;-80
2023/09/20 14:26:00;;;;;;;2.67;2.00;;;;;;;;;;7303283;19;140850;-80
2023/09/20 14:28:28;;;;;;;2.20;1.90;;;;;;;;;;7303993;19;143049;-79
2023/09/20 14:30:55;;;;;;;2.78;1.92;;;;;;;;;;7301360;19;143035;-79
2023/09/20 14:33:22;;;;;;;2.53;2.08;;;;;;;;;;7298433;19;141031;-78
2023/09/20 14:35:50;;;;;;;2.10;1.90;;;;;;;;;;7298970;19;142527;-80
2023/09/20 14:38:24;;;;;;;2.58;2.08;;;;;;;;;;7300443;19;140832;-79
2023/09/20 14:40:52;;;;;;;2.20;2.00;;;;;;;;;;7304565;19;142291;-79
2023/09/20 14:43:20;;;;;;;2.35;1.90;;;;;;;;;;7304220;19;141990;-79
2023/09/20 14:45:53;;;;;;;2.63;2.00;;;;;;;;;;7301255;19;140814;-79
2023/09/20 14:48:21;;;;;;;2.38;1.95;;;;;;;;;;7301635;19;140845;-77
2023/09/20 14:50:48;;;;;;;2.60;2.07;;;;;;;;;;7302699;19;142240;-78
2023/09/20 14:53:18;;;;;;;2.72;2.15;;;;;;;;;;7303187;19;141206;-79
2023/09/20 14:55:45;;;;;;;2.75;2.15;;;;;;;;;;7301539;19;140778;-78
2023/09/20 14:58:12;;;;;;;2.38;2.00;;;;;;;;;;7303037;19;141790;-79
2023/09/20 15:00:41;;;;;;;2.70;2.10;;;;;;;;;;7301011;19;141191;-79
2023/09/20 15:03:11;;;;;;;2.72;2.10;;;;;;;;;;7302756;19;142459;-79
2023/09/20 15:05:38;;;;;;;2.25;1.98;;;;;;;;;;7302439;19;140687;-78
2023/09/20 15:08:08;;;;;;;2.50;2.00;;;;;;;;;;7302998;19;140750;-78
2023/09/20 15:10:40;;;;;;;2.30;2.00;;;;;;;;;;7299265;19;141047;-77
2023/09/20 15:13:07;;;;;;;3.03;1.97;;;;;;;;;;7301972;19;142361;-78
2023/09/20 15:15:34;;;;;;;2.80;2.10;;;;;;;;;;7302886;19;141601;-76
2023/09/20 15:18:03;;;;;;;2.80;2.08;;;;;;;;;;7302862;19;140493;-76
2023/09/20 15:20:31;;;;;;;2.28;1.90;;;;;;;;;;7301580;19;141536;-77
2023/09/20 15:22:58;;;;;;;2.25;1.95;;;;;;;;;;7302580;19;142335;-75
2023/09/20 15:25:29;;;;;;;2.97;2.13;;;;;;;;;;7302822;19;140616;-77
2023/09/20 15:27:57;;;;;;;2.42;2.13;;;;;;;;;;7302607;19;141337;-78
2023/09/20 15:30:36;;;;;;;2.90;2.25;;;;;;;;;;7301066;19;140969;-77
2023/09/20 15:33:04;;;;;;;3.47;2.10;;;;;;;;;;7301313;19;140621;-77
2023/09/20 15:35:31;;;;;;;2.45;2.15;;;;;;;;;;7300211;19;140795;-76
2023/09/20 15:37:58;;;;;;;2.83;2.03;;;;;;;;;;7300941;19;140567;-77
2023/09/20 15:40:27;;;;;;;2.53;2.30;;;;;;;;;;7300854;19;141908;-76
2023/09/20 15:42:57;;;;;;;2.47;2.15;;;;;;;;;;7301155;19;140801;-77
2023/09/20 15:45:25;;;;;;;2.30;2.10;;;;;;;;;;7302563;19;140836;-77
2023/09/20 15:47:52;;;;;;;2.10;1.90;;;;;;;;;;7302241;19;140505;-77
2023/09/20 15:50:20;;;;;;;2.67;2.20;;;;;;;;;;7301535;19;140595;-78
2023/09/20 15:52:48;;;;;;;2.53;2.03;;;;;;;;;;7300915;19;142095;-78
2023/09/20 15:55:16;;;;;;;2.60;2.20;;;;;;;;;;7301188;19;140972;-79